EST,Max TemperatureF,Mean TemperatureF,Min TemperatureF,Max Dew PointF,MeanDew PointF,Min DewpointF,Max Humidity, Mean Humidity, Min Humidity, Max Sea Level PressureIn, Mean Sea Level PressureIn, Min Sea Level PressureIn, Max VisibilityMiles, Mean VisibilityMiles, Min VisibilityMiles, Max Wind SpeedMPH, Mean Wind SpeedMPH, Max Gust SpeedMPH,PrecipitationIn, CloudCover, Events, WindDirDegrees
2013-2-1,21,16,10,21,10,3,100,82,68,30.26,30.05,29.75,10,7,2,22,12,29,0.00,,,282
2013-2-2,21,14,8,21,14,3,100,93,79,30.25,30.06,29.92,10,6,1,15,7,20,0.00,,,242
2013-2-3,24,20,17,25,20,16,100,96,86,29.93,29.84,29.75,10,5,1,17,3,23,0.00,,,284
2013-2-4,24,20,15,25,18,12,100,93,74,30.00,29.91,29.82,10,6,1,17,10,25,0.03,,,265
2013-2-5,30,27,24,30,27,25,100,100,93,29.90,29.83,29.79,10,5,2,12,1,,0.00,,,274
2013-2-6,30,21,12,27,22,12,100,89,60,30.30,30.14,29.89,10,9,2,14,7,20,0.00,,,287
2013-2-7,39,26,12,27,23,12,100,80,61,30.28,30.18,30.01,10,10,10,17,4,23,0.00,,,132
2013-2-8,37,29,21,37,30,21,100,95,81,30.06,29.89,29.77,10,8,2,21,13,31,0.17,,,228
2013-2-9,30,22,14,21,17,14,100,85,55,30.35,30.27,30.07,10,8,2,15,8,23,0.00,,,314
2013-2-10,46,28,10,23,17,10,100,65,29,30.33,30.19,29.99,10,10,10,15,3,24,0.00,,,149
2013-2-11,60,48,35,50,35,21,100,73,36,29.99,29.80,29.63,10,9,2,33,13,48,0.08,,,242
2013-2-12,35,29,23,28,26,23,100,80,65,30.03,29.95,29.90,10,10,10,22,11,28,0.00,,,289
2013-2-13,42,32,21,34,27,21,100,89,49,29.90,29.76,29.65,10,8,1,10,1,16,0.06,,,261
2013-2-14,39,32,26,36,31,27,100,93,75,29.94,29.89,29.82,10,8,5,20,7,29,0.00,,,241
2013-2-15,39,34,28,37,31,28,100,86,65,30.01,29.96,29.88,10,9,2,15,7,23,0.00,,,266
2013-2-16,28,22,15,27,20,16,100,86,64,30.00,29.93,29.86,10,9,1,10,3,16,0.00,,,311
2013-2-17,21,18,14,18,13,5,100,82,58,30.19,29.98,29.85,10,7,0,17,6,28,0.00,,,307
2013-2-18,39,21,3,27,15,3,100,69,38,30.26,30.13,29.92,10,10,7,9,3,,0.00,,,181
2013-2-19,42,32,23,41,30,18,100,82,52,29.91,29.77,29.62,10,9,2,23,12,33,0.21,,,234
2013-2-20,23,19,15,19,14,10,100,84,68,30.13,30.00,29.84,10,7,1,23,15,36,0.00,,,291
2013-2-21,23,18,14,18,15,12,100,87,74,30.30,30.20,30.10,10,9,2,16,8,23,0.00,,,301
2013-2-22,30,22,15,30,24,16,100,91,69,30.25,30.10,30.01,10,9,2,14,6,24,0.00,,,130
2013-2-23,42,36,30,39,34,30,100,95,76,30.01,29.90,29.83,10,9,4,9,2,,0.00,,,158
2013-2-24,30,28,26,30,27,23,100,93,80,30.10,29.96,29.82,10,8,1,14,4,21,0.00,,,297
2013-2-25,41,31,21,27,25,21,100,78,52,30.20,30.13,30.07,10,10,5,7,1,,0.00,,,102
2013-2-26,37,35,33,36,29,23,100,81,60,30.09,29.88,29.61,10,9,2,22,11,36,0.59,,,124
2013-2-27,42,38,33,39,36,34,100,98,81,29.66,29.61,29.56,10,10,5,20,8,24,0.14,,,239
2013-2-28,33,32,30,34,32,30,100,100,93,29.74,29.64,29.60,10,7,1,10,8,16,0.01,,,265